createdAt,value
2023-05-19T00:02:20.981Z,97399.09
2023-05-19T00:04:48.340Z,97400.25
2023-05-19T00:07:18.180Z,97403.47
2023-05-19T00:09:44.949Z,97397.72
2023-05-19T00:12:12.255Z,97400.38
2023-05-19T00:14:38.927Z,97392.94
2023-05-19T00:17:05.852Z,97395.00
2023-05-19T00:19:32.423Z,97383.66
2023-05-19T00:21:59.124Z,97388.00
2023-05-19T00:24:25.641Z,97380.91
2023-05-19T00:26:52.343Z,97388.00
2023-05-19T00:29:19.126Z,97388.97
2023-05-19T00:31:46.212Z,97390.13
2023-05-19T00:34:12.803Z,97387.47
2023-05-19T00:36:39.366Z,97387.41
2023-05-19T00:39:06.001Z,97388.09
2023-05-19T00:41:32.622Z,97387.47
2023-05-19T00:43:59.761Z,97386.25
2023-05-19T00:46:26.274Z,97385.41
2023-05-19T00:48:53.107Z,97381.47
2023-05-19T00:51:19.972Z,97370.28
2023-05-19T00:53:49.490Z,97363.19
2023-05-19T00:56:16.849Z,97368.84
2023-05-19T00:58:44.118Z,97362.56
2023-05-19T01:01:12.084Z,97367.28
2023-05-19T01:03:40.914Z,97364.81
2023-05-19T01:06:08.086Z,97356.69
2023-05-19T01:08:36.720Z,97358.03
2023-05-19T01:11:04.340Z,97357.91
2023-05-19T01:13:31.640Z,97350.53
2023-05-19T01:16:07.673Z,97360.50
2023-05-19T01:18:56.737Z,97367.63
2023-05-19T01:21:48.888Z,97362.06
2023-05-19T01:24:34.112Z,97361.91
2023-05-19T01:27:14.399Z,97367.19
2023-05-19T01:30:17.847Z,97368.06
2023-05-19T01:32:45.829Z,97376.84
2023-05-19T01:35:15.453Z,97374.41
2023-05-19T01:37:42.685Z,97369.09
2023-05-19T01:40:10.047Z,97368.50
2023-05-19T01:42:39.840Z,97374.59
2023-05-19T01:45:10.626Z,97369.94
2023-05-19T01:47:42.897Z,97368.66
2023-05-19T01:50:10.141Z,97376.19
2023-05-19T01:52:36.753Z,97365.69
2023-05-19T01:55:03.569Z,97360.97
2023-05-19T01:57:52.224Z,97363.84
2023-05-19T02:00:52.126Z,97359.41
2023-05-19T02:03:36.997Z,97357.56
2023-05-19T02:06:18.398Z,97360.66
2023-05-19T02:08:56.651Z,97365.44
2023-05-19T02:11:30.869Z,97360.78
2023-05-19T02:14:01.399Z,97355.59
2023-05-19T02:16:29.321Z,97358.06
2023-05-19T02:18:56.493Z,97353.41
2023-05-19T02:21:22.990Z,97358.53
2023-05-19T02:23:50.803Z,97370.44
2023-05-19T02:26:17.324Z,97365.44
2023-05-19T02:28:43.832Z,97359.69
2023-05-19T02:31:10.337Z,97359.69
2023-05-19T02:33:37.426Z,97358.03
2023-05-19T02:36:04.413Z,97362.44
2023-05-19T02:38:30.968Z,97354.06
2023-05-19T02:40:57.445Z,97350.88
2023-05-19T02:43:23.878Z,97356.50
2023-05-19T02:45:50.367Z,97358.72
2023-05-19T02:48:16.846Z,97351.84
2023-05-19T02:50:43.318Z,97362.25
2023-05-19T02:53:09.855Z,97355.38
2023-05-19T02:55:36.619Z,97348.00
2023-05-19T02:58:03.174Z,97357.16
2023-05-19T03:00:29.834Z,97356.16
2023-05-19T03:02:56.490Z,97353.75
2023-05-19T03:05:23.000Z,97352.31
2023-05-19T03:07:49.544Z,97356.25
2023-05-19T03:10:16.260Z,97352.00
2023-05-19T03:12:42.720Z,97354.25
2023-05-19T03:15:09.522Z,97353.78
2023-05-19T03:17:36.245Z,97348.88
2023-05-19T03:20:02.907Z,97351.50
2023-05-19T03:22:29.629Z,97357.47
2023-05-19T03:24:56.247Z,97354.16
2023-05-19T03:27:22.669Z,97355.28
2023-05-19T03:29:49.151Z,97353.63
2023-05-19T03:32:15.864Z,97356.88
2023-05-19T03:34:42.408Z,97356.41
2023-05-19T03:37:10.677Z,97355.19
2023-05-19T03:39:37.157Z,97353.63
2023-05-19T03:42:03.717Z,97356.97
2023-05-19T03:44:30.570Z,97351.06
2023-05-19T03:46:57.332Z,97355.38
2023-05-19T03:49:23.772Z,97360.19
2023-05-19T03:51:50.468Z,97360.81
2023-05-19T03:54:17.049Z,97350.88
2023-05-19T03:56:43.664Z,97354.72
2023-05-19T03:59:13.032Z,97359.03
2023-05-19T04:01:39.667Z,97361.19
2023-05-19T04:04:06.164Z,97346.00
2023-05-19T04:06:33.868Z,97349.97
2023-05-19T04:09:00.426Z,97363.19
2023-05-19T04:11:26.903Z,97363.25
2023-05-19T04:13:53.444Z,97355.16
2023-05-19T04:16:19.986Z,97362.00
2023-05-19T04:18:46.649Z,97364.50
2023-05-19T04:21:13.327Z,97354.31
2023-05-19T04:23:39.835Z,97361.53
2023-05-19T04:26:06.910Z,97363.59
2023-05-19T04:28:36.073Z,97355.69
2023-05-19T04:31:03.525Z,97356.47
2023-05-19T04:33:30.043Z,97362.25
2023-05-19T04:35:56.910Z,97360.97
2023-05-19T04:38:23.482Z,97357.91
2023-05-19T04:40:51.975Z,97359.06
2023-05-19T04:43:19.308Z,97354.50
2023-05-19T04:45:47.368Z,97349.13
2023-05-19T04:48:14.031Z,97359.50
2023-05-19T04:50:42.231Z,97359.19
2023-05-19T04:53:09.584Z,97361.75
2023-05-19T04:55:37.081Z,97354.63
2023-05-19T04:58:04.356Z,97361.72
2023-05-19T05:00:31.099Z,97356.59
2023-05-19T05:02:58.094Z,97354.41
2023-05-19T05:05:27.276Z,97355.09
2023-05-19T05:07:54.217Z,97350.50
2023-05-19T05:10:21.734Z,97355.19
2023-05-19T05:12:48.484Z,97352.59
2023-05-19T05:15:15.456Z,97348.53
2023-05-19T05:17:42.306Z,97356.13
2023-05-19T05:20:10.228Z,97359.75
2023-05-19T05:22:38.571Z,97353.59
2023-05-19T05:25:05.743Z,97359.00
2023-05-19T05:27:32.684Z,97361.84
2023-05-19T05:29:59.338Z,97362.56
2023-05-19T05:32:26.106Z,97361.53
2023-05-19T05:34:52.825Z,97358.00
2023-05-19T05:37:19.278Z,97365.44
2023-05-19T05:39:46.209Z,97362.09
2023-05-19T05:42:12.705Z,97365.09
2023-05-19T05:44:39.364Z,97371.47
2023-05-19T05:47:06.329Z,97369.88
2023-05-19T05:49:33.113Z,97369.31
2023-05-19T05:52:05.709Z,97368.25
2023-05-19T05:54:33.526Z,97375.06
2023-05-19T05:57:00.656Z,97373.28
2023-05-19T05:59:27.517Z,97368.00
2023-05-19T06:01:54.159Z,97369.19
2023-05-19T06:04:21.362Z,97364.88
2023-05-19T06:06:47.910Z,97371.72
2023-05-19T06:09:14.376Z,97374.25
2023-05-19T06:11:41.024Z,97367.03
2023-05-19T06:14:07.508Z,97381.88
2023-05-19T06:16:34.054Z,97370.88
2023-05-19T06:19:00.675Z,97370.91
2023-05-19T06:21:27.462Z,97373.88
2023-05-19T06:23:54.242Z,97359.63
2023-05-19T06:26:20.912Z,97359.34
2023-05-19T06:28:47.477Z,97361.06
2023-05-19T06:31:14.027Z,97367.19
2023-05-19T06:33:40.648Z,97364.53
2023-05-19T06:36:08.518Z,97367.50
2023-05-19T06:38:34.981Z,97367.22
2023-05-19T06:41:01.474Z,97357.03
2023-05-19T06:43:29.088Z,97366.38
2023-05-19T06:45:55.774Z,97356.00
2023-05-19T06:48:22.172Z,97361.34
2023-05-19T06:50:48.979Z,97377.31
2023-05-19T06:53:17.593Z,97366.56
2023-05-19T06:55:54.796Z,97359.59
2023-05-19T06:58:26.681Z,97370.88
2023-05-19T07:00:53.330Z,97365.34
2023-05-19T07:03:19.920Z,97365.34
2023-05-19T07:05:46.617Z,97369.66
2023-05-19T07:08:13.040Z,97368.13
2023-05-19T07:10:39.617Z,97364.94
2023-05-19T07:13:06.445Z,97361.56
2023-05-19T07:15:33.077Z,97368.09
2023-05-19T07:17:59.674Z,97370.97
2023-05-19T07:20:26.366Z,97360.59
2023-05-19T07:22:52.867Z,97362.72
2023-05-19T07:25:19.419Z,97355.16
2023-05-19T07:27:45.960Z,97354.75
2023-05-19T07:30:12.827Z,97349.78
2023-05-19T07:32:39.303Z,97361.53
2023-05-19T07:35:06.641Z,97362.88
2023-05-19T07:37:33.077Z,97359.91
2023-05-19T07:39:59.618Z,97352.78
2023-05-19T07:42:26.086Z,97357.63
2023-05-19T07:44:52.530Z,97364.28
2023-05-19T07:47:19.032Z,97364.19
2023-05-19T07:49:45.685Z,97367.41
2023-05-19T07:52:12.149Z,97361.88
2023-05-19T07:54:38.660Z,97362.94
2023-05-19T07:57:05.787Z,97355.13
2023-05-19T07:59:32.470Z,97349.09
2023-05-19T08:01:58.988Z,97347.44
2023-05-19T08:04:25.465Z,97356.28
2023-05-19T08:06:53.145Z,97356.09
2023-05-19T08:09:20.194Z,97355.25
2023-05-19T08:11:50.009Z,97350.25
2023-05-19T08:14:16.816Z,97348.97
2023-05-19T08:16:44.063Z,97343.66
2023-05-19T08:19:10.687Z,97352.13
2023-05-19T08:21:37.324Z,97339.28
2023-05-19T08:24:04.380Z,97344.19
2023-05-19T08:26:30.863Z,97333.72
2023-05-19T08:28:57.380Z,97348.00
2023-05-19T08:31:24.869Z,97332.66
2023-05-19T08:33:51.420Z,97334.88
2023-05-19T08:36:18.325Z,97331.56
2023-05-19T08:38:44.929Z,97328.03
2023-05-19T08:41:11.422Z,97329.38
2023-05-19T08:43:39.696Z,97334.16
2023-05-19T08:46:08.145Z,97331.25
2023-05-19T08:48:35.870Z,97333.50
2023-05-19T08:51:11.306Z,97340.38
2023-05-19T08:53:43.941Z,97331.38
2023-05-19T08:56:22.022Z,97327.06
2023-05-19T08:58:50.453Z,97330.25
2023-05-19T09:01:18.439Z,97327.59
2023-05-19T09:03:46.760Z,97330.34
2023-05-19T09:06:13.411Z,97330.09
2023-05-19T09:08:41.448Z,97334.06
2023-05-19T09:11:09.715Z,97328.97
2023-05-19T09:13:36.327Z,97335.16
2023-05-19T09:16:03.508Z,97320.22
2023-05-19T09:18:31.145Z,97322.34
2023-05-19T09:21:00.259Z,97318.59
2023-05-19T09:23:33.387Z,97321.03
2023-05-19T09:26:05.037Z,97327.66
2023-05-19T09:28:33.482Z,97326.81
2023-05-19T09:31:07.294Z,97321.50
2023-05-19T09:33:39.102Z,97321.78
2023-05-19T09:36:08.352Z,97311.72
2023-05-19T09:38:36.415Z,97328.25
2023-05-19T09:41:05.696Z,97320.69
2023-05-19T09:43:34.174Z,97306.31
2023-05-19T09:46:04.852Z,97308.94
2023-05-19T09:48:31.568Z,97314.09
2023-05-19T09:50:58.247Z,97316.50
2023-05-19T09:53:25.539Z,97308.16
2023-05-19T09:55:58.934Z,97311.63
2023-05-19T09:58:26.606Z,97317.03
2023-05-19T10:00:54.803Z,97316.75
2023-05-19T10:03:23.888Z,97313.72
2023-05-19T10:05:50.450Z,97318.00
2023-05-19T10:08:17.948Z,97326.31
2023-05-19T10:10:48.287Z,97319.88
2023-05-19T10:13:16.583Z,97319.28
2023-05-19T10:15:57.327Z,97326.03
2023-05-19T10:18:26.622Z,97322.63
2023-05-19T10:20:54.285Z,97321.06
2023-05-19T10:23:21.178Z,97320.81
2023-05-19T10:25:49.243Z,97316.53
2023-05-19T10:28:18.897Z,97317.25
2023-05-19T10:30:49.357Z,97318.41
2023-05-19T10:33:18.262Z,97315.00
2023-05-19T10:36:13.841Z,97311.94
2023-05-19T10:38:48.333Z,97310.06
2023-05-19T10:41:41.749Z,97312.25
2023-05-19T10:44:26.818Z,97320.09
2023-05-19T10:46:55.751Z,97310.63
2023-05-19T10:49:24.045Z,97314.88
2023-05-19T10:51:52.325Z,97321.41
2023-05-19T10:54:40.720Z,97323.44
2023-05-19T10:57:08.501Z,97314.84
2023-05-19T10:59:37.883Z,97311.78
2023-05-19T11:02:05.321Z,97312.78
2023-05-19T11:04:51.321Z,97313.22
2023-05-19T11:07:24.581Z,97313.53
2023-05-19T11:09:54.378Z,97309.00
2023-05-19T11:12:25.472Z,97312.56
2023-05-19T11:14:55.532Z,97310.09
2023-05-19T11:17:26.097Z,97314.06
2023-05-19T11:19:55.534Z,97313.06
2023-05-19T11:22:26.907Z,97314.69
2023-05-19T11:24:57.690Z,97318.81
2023-05-19T11:27:34.648Z,97313.63
2023-05-19T11:30:19.202Z,97318.31
2023-05-19T11:32:48.214Z,97304.50
2023-05-19T11:35:15.732Z,97318.94
2023-05-19T11:37:42.733Z,97310.56
2023-05-19T11:40:09.555Z,97317.97
2023-05-19T11:42:36.972Z,97319.53
2023-05-19T11:45:04.232Z,97328.72
2023-05-19T11:47:42.584Z,97323.28
2023-05-19T11:50:20.166Z,97319.38
2023-05-19T11:52:47.567Z,97319.69
2023-05-19T11:55:24.200Z,97306.84
2023-05-19T12:00:37.159Z,97303.28
2023-05-19T12:03:04.213Z,97315.84
2023-05-19T12:05:34.504Z,97303.38
2023-05-19T12:08:02.821Z,97312.72
2023-05-19T12:10:31.541Z,97303.31
2023-05-19T12:12:59.309Z,97305.97
2023-05-19T12:15:25.965Z,97305.94
2023-05-19T12:18:01.510Z,97298.94
2023-05-19T12:20:29.693Z,97306.81
2023-05-19T12:22:56.420Z,97312.91
2023-05-19T12:25:23.665Z,97308.84
2023-05-19T12:27:52.687Z,97312.81
2023-05-19T12:30:26.192Z,97312.47
2023-05-19T12:32:54.222Z,97316.59
2023-05-19T12:35:23.243Z,97313.19
2023-05-19T12:37:50.567Z,97314.25
2023-05-19T12:40:17.317Z,97329.72
2023-05-19T12:42:48.736Z,97330.38
2023-05-19T12:45:15.594Z,97327.09
2023-05-19T12:47:42.077Z,97319.25
2023-05-19T12:50:10.338Z,97334.31
2023-05-19T12:52:53.058Z,97323.09
2023-05-19T12:55:20.915Z,97324.97
2023-05-19T12:57:54.759Z,97321.25
2023-05-19T13:00:25.177Z,97321.28
2023-05-19T13:02:59.853Z,97314.66
2023-05-19T13:05:31.229Z,97320.81
2023-05-19T13:07:59.196Z,97319.25
2023-05-19T13:10:27.711Z,97317.66
2023-05-19T13:12:55.661Z,97321.91
2023-05-19T13:15:23.624Z,97312.34
2023-05-19T13:17:50.434Z,97319.50
2023-05-19T13:20:17.007Z,97313.94
2023-05-19T13:22:43.445Z,97313.91
2023-05-19T13:25:10.697Z,97317.16
2023-05-19T13:27:37.752Z,97305.97
2023-05-19T13:30:05.082Z,97300.63
2023-05-19T13:32:31.586Z,97298.00
2023-05-19T13:34:58.679Z,97295.88
2023-05-19T13:37:25.355Z,97295.34
2023-05-19T13:39:53.194Z,97299.03
2023-05-19T13:42:19.772Z,97296.38
2023-05-19T13:44:47.825Z,97292.66
2023-05-19T13:47:14.360Z,97296.84
2023-05-19T13:49:41.522Z,97291.28
2023-05-19T13:52:08.251Z,97290.47
2023-05-19T13:54:35.055Z,97287.81
2023-05-19T13:57:01.551Z,97296.94
2023-05-19T13:59:28.651Z,97296.38
2023-05-19T14:01:55.658Z,97289.94
2023-05-19T14:04:23.682Z,97289.44
2023-05-19T14:06:50.650Z,97279.38
2023-05-19T14:09:17.346Z,97267.91
2023-05-19T14:11:44.069Z,97275.13
2023-05-19T14:14:11.601Z,97274.03
2023-05-19T14:16:38.580Z,97268.41
2023-05-19T14:19:05.098Z,97268.19
2023-05-19T14:21:32.542Z,97272.88
2023-05-19T14:23:59.037Z,97282.47
2023-05-19T14:26:27.457Z,97273.94
2023-05-19T14:28:56.945Z,97275.63
2023-05-19T14:31:23.983Z,97273.47
2023-05-19T14:33:51.383Z,97267.09
2023-05-19T14:36:18.392Z,97272.97
2023-05-19T14:38:44.928Z,97276.69
2023-05-19T14:41:11.589Z,97272.44
2023-05-19T14:43:38.077Z,97270.25
2023-05-19T14:46:04.625Z,97279.34
2023-05-19T14:48:31.112Z,97278.56
2023-05-19T14:50:57.557Z,97280.97
2023-05-19T14:53:24.041Z,97280.94
2023-05-19T14:55:50.528Z,97283.59
2023-05-19T14:58:28.254Z,97278.31
2023-05-19T15:00:58.119Z,97286.25
2023-05-19T15:03:24.979Z,97276.13
2023-05-19T15:05:51.690Z,97280.94
2023-05-19T15:08:18.206Z,97279.59
2023-05-19T15:10:48.676Z,97274.75
2023-05-19T15:13:15.509Z,97275.63
2023-05-19T15:15:41.996Z,97273.84
2023-05-19T15:18:08.473Z,97271.19
2023-05-19T15:20:35.278Z,97271.53
2023-05-19T15:23:02.072Z,97268.66
2023-05-19T15:25:28.628Z,97267.59
2023-05-19T15:27:55.221Z,97263.03
2023-05-19T15:30:22.126Z,97258.00
2023-05-19T15:32:48.953Z,97266.50
2023-05-19T15:35:16.904Z,97262.28
2023-05-19T15:37:43.676Z,97252.19
2023-05-19T15:40:10.492Z,97253.78
2023-05-19T15:42:37.134Z,97242.63
2023-05-19T15:45:04.112Z,97249.00
2023-05-19T15:47:30.650Z,97248.47
2023-05-19T15:49:57.119Z,97236.50
2023-05-19T15:52:23.683Z,97235.16
2023-05-19T15:54:50.223Z,97232.81
2023-05-19T15:57:17.067Z,97243.69
2023-05-19T15:59:43.767Z,97234.63
2023-05-19T16:02:11.361Z,97233.00
2023-05-19T16:04:37.972Z,97234.03
2023-05-19T16:07:04.589Z,97237.00
2023-05-19T16:09:31.208Z,97230.81
2023-05-19T16:11:57.756Z,97230.75
2023-05-19T16:14:24.466Z,97223.81
2023-05-19T16:16:51.409Z,97219.25
2023-05-19T16:19:18.280Z,97219.09
2023-05-19T16:21:45.020Z,97230.03
2023-05-19T16:24:11.518Z,97214.34
2023-05-19T16:26:38.063Z,97217.03
2023-05-19T16:29:04.908Z,97214.41
2023-05-19T16:31:31.435Z,97206.44
2023-05-19T16:33:58.254Z,97209.59
2023-05-19T16:36:24.993Z,97211.16
2023-05-19T16:38:51.460Z,97204.16
2023-05-19T16:41:18.127Z,97211.31
2023-05-19T16:43:44.980Z,97206.47
2023-05-19T16:46:12.521Z,97215.34
2023-05-19T16:48:39.083Z,97213.81
2023-05-19T16:51:05.773Z,97207.16
2023-05-19T16:53:32.396Z,97214.88
2023-05-19T16:55:59.301Z,97214.91
2023-05-19T16:58:27.200Z,97210.66
2023-05-19T17:00:56.934Z,97207.97
2023-05-19T17:03:24.007Z,97209.56
2023-05-19T17:05:50.731Z,97204.53
2023-05-19T17:08:17.152Z,97198.44
2023-05-19T17:10:44.770Z,97194.19
2023-05-19T17:13:11.761Z,97200.03
2023-05-19T17:15:38.378Z,97195.78
2023-05-19T17:18:05.761Z,97190.19
2023-05-19T17:20:32.445Z,97202.72
2023-05-19T17:22:59.329Z,97200.84
2023-05-19T17:25:25.965Z,97206.44
2023-05-19T17:27:52.515Z,97192.59
2023-05-19T17:30:19.118Z,97192.06
2023-05-19T17:32:45.884Z,97194.69
2023-05-19T17:35:12.857Z,97193.91
2023-05-19T17:37:39.602Z,97188.81
2023-05-19T17:40:06.831Z,97192.50
2023-05-19T17:42:33.446Z,97192.53
2023-05-19T17:45:00.170Z,97190.66
2023-05-19T17:47:26.750Z,97193.31
2023-05-19T17:49:53.499Z,97189.88
2023-05-19T17:52:20.583Z,97189.88
2023-05-19T17:54:47.560Z,97185.09
2023-05-19T17:57:16.967Z,97178.72
2023-05-19T17:59:43.853Z,97185.13
2023-05-19T18:02:10.768Z,97182.44
2023-05-19T18:04:37.930Z,97186.75
2023-05-19T18:07:06.150Z,97187.56
2023-05-19T18:09:35.744Z,97184.88
2023-05-19T18:12:02.805Z,97185.13
2023-05-19T18:14:29.706Z,97183.03
2023-05-19T18:16:56.349Z,97180.88
2023-05-19T18:19:22.870Z,97189.41
2023-05-19T18:21:49.423Z,97189.41
2023-05-19T18:24:16.195Z,97176.63
2023-05-19T18:26:43.469Z,97181.94
2023-05-19T18:29:11.042Z,97189.91
2023-05-19T18:31:37.818Z,97181.38
2023-05-19T18:34:04.686Z,97181.81
2023-05-19T18:36:31.639Z,97176.97
2023-05-19T18:38:59.186Z,97181.16
2023-05-19T18:41:26.135Z,97176.28
2023-05-19T18:43:52.682Z,97170.63
2023-05-19T18:46:19.847Z,97162.59
2023-05-19T18:48:47.640Z,97166.44
2023-05-19T18:51:15.715Z,97165.84
2023-05-19T18:53:42.282Z,97167.84
2023-05-19T18:56:11.330Z,97176.78
2023-05-19T18:58:37.899Z,97173.50
2023-05-19T19:01:05.307Z,97174.22
2023-05-19T19:03:32.253Z,97176.78
2023-05-19T19:05:59.576Z,97180.13
2023-05-19T19:08:26.344Z,97186.13
2023-05-19T19:10:53.617Z,97175.72
2023-05-19T19:13:20.603Z,97180.44
2023-05-19T19:15:47.028Z,97179.81
2023-05-19T19:18:13.793Z,97171.31
2023-05-19T19:20:40.293Z,97179.97
2023-05-19T19:23:06.898Z,97184.97
2023-05-19T19:25:33.579Z,97184.63
2023-05-19T19:28:00.167Z,97187.56
2023-05-19T19:30:27.210Z,97184.34
2023-05-19T19:32:54.850Z,97182.75
2023-05-19T19:35:21.762Z,97184.34
2023-05-19T19:37:48.464Z,97183.84
2023-05-19T19:40:14.880Z,97182.25
2023-05-19T19:42:41.346Z,97174.84
2023-05-19T19:45:13.117Z,97176.47
2023-05-19T19:47:41.754Z,97190.13
2023-05-19T19:50:09.182Z,97195.91
2023-05-19T19:52:35.661Z,97186.31
2023-05-19T19:55:02.107Z,97179.41
2023-05-19T19:57:29.996Z,97178.94
2023-05-19T19:59:59.833Z,97187.47
2023-05-19T20:02:26.466Z,97184.41
2023-05-19T20:04:53.145Z,97184.88
2023-05-19T20:07:20.878Z,97197.41
2023-05-19T20:09:49.484Z,97198.50
2023-05-19T20:12:16.097Z,97192.72
2023-05-19T20:14:42.556Z,97190.41
2023-05-19T20:17:09.102Z,97185.63
2023-05-19T20:19:35.843Z,97178.41
2023-05-19T20:22:02.404Z,97176.84
2023-05-19T20:24:28.894Z,97184.81
2023-05-19T20:26:55.307Z,97185.91
2023-05-19T20:29:23.777Z,97186.81
2023-05-19T20:31:50.242Z,97195.00
2023-05-19T20:34:16.713Z,97185.72
2023-05-19T20:36:43.193Z,97190.94
2023-05-19T20:39:10.182Z,97184.81
2023-05-19T20:41:37.026Z,97190.88
2023-05-19T20:44:03.660Z,97187.00
2023-05-19T20:46:30.319Z,97177.03
2023-05-19T20:48:57.023Z,97176.16
2023-05-19T20:51:25.198Z,97179.63
2023-05-19T20:53:51.700Z,97173.72
2023-05-19T20:56:19.666Z,97184.03
2023-05-19T20:58:46.209Z,97179.03
2023-05-19T21:01:12.827Z,97176.41
2023-05-19T21:03:39.310Z,97173.25
2023-05-19T21:06:05.850Z,97167.94
2023-05-19T21:08:32.315Z,97157.81
2023-05-19T21:10:59.492Z,97162.13
2023-05-19T21:13:25.956Z,97160.31
2023-05-19T21:15:52.460Z,97163.22
2023-05-19T21:18:18.909Z,97160.53
2023-05-19T21:20:45.322Z,97161.78
2023-05-19T21:23:11.761Z,97168.13
2023-05-19T21:25:45.409Z,97157.50
2023-05-19T21:28:12.279Z,97158.25
2023-05-19T21:30:38.868Z,97155.03
2023-05-19T21:33:05.685Z,97155.47
2023-05-19T21:35:32.400Z,97148.03
2023-05-19T21:38:03.889Z,97143.69
2023-05-19T21:40:35.600Z,97144.69
2023-05-19T21:43:02.309Z,97150.00
2023-05-19T21:45:29.106Z,97146.59
2023-05-19T21:47:55.838Z,97145.97
2023-05-19T21:50:22.405Z,97137.25
2023-05-19T21:52:48.816Z,97135.09
2023-05-19T21:55:15.669Z,97145.75
2023-05-19T21:57:42.300Z,97143.09
2023-05-19T22:00:12.840Z,97139.41
2023-05-19T22:02:40.407Z,97136.75
2023-05-19T22:05:06.987Z,97140.38
2023-05-19T22:07:33.517Z,97136.13
2023-05-19T22:10:00.075Z,97133.00
2023-05-19T22:12:26.523Z,97127.72
2023-05-19T22:14:53.018Z,97125.31
2023-05-19T22:17:21.819Z,97131.88
2023-05-19T22:19:48.312Z,97132.41
2023-05-19T22:22:14.941Z,97127.06
2023-05-19T22:24:41.743Z,97121.69
2023-05-19T22:27:08.706Z,97125.34
2023-05-19T22:29:38.400Z,97132.03
2023-05-19T22:32:07.578Z,97114.06
2023-05-19T22:34:34.041Z,97119.06
2023-05-19T22:37:00.613Z,97120.66
2023-05-19T22:39:27.125Z,97118.00
2023-05-19T22:41:53.649Z,97110.59
2023-05-19T22:44:20.287Z,97111.66
2023-05-19T22:46:46.842Z,97112.47
2023-05-19T22:49:13.331Z,97102.63
2023-05-19T22:51:40.028Z,97096.84
2023-05-19T22:54:07.923Z,97102.91
2023-05-19T22:56:34.594Z,97099.22
2023-05-19T22:59:01.435Z,97097.63
2023-05-19T23:01:27.963Z,97096.03
2023-05-19T23:03:54.678Z,97093.06
2023-05-19T23:06:21.910Z,97093.34
2023-05-19T23:08:58.521Z,97093.81
2023-05-19T23:11:25.021Z,97085.03
2023-05-19T23:13:51.490Z,97094.81
2023-05-19T23:16:18.032Z,97078.66
2023-05-19T23:18:44.580Z,97079.63
2023-05-19T23:21:11.074Z,97087.31
2023-05-19T23:23:37.593Z,97079.38
2023-05-19T23:26:04.169Z,97077.50
2023-05-19T23:28:30.622Z,97081.22
2023-05-19T23:30:57.224Z,97070.66
2023-05-19T23:33:23.709Z,97078.03
2023-05-19T23:35:50.271Z,97081.22
2023-05-19T23:38:16.710Z,97082.03
2023-05-19T23:40:43.869Z,97072.22
2023-05-19T23:43:10.621Z,97077.03
2023-05-19T23:45:37.183Z,97071.75
2023-05-19T23:48:04.081Z,97067.25
2023-05-19T23:50:30.691Z,97059.63
2023-05-19T23:52:57.119Z,97059.66
2023-05-19T23:55:23.573Z,97057.06
2023-05-19T23:57:50.049Z,97065.09
